sensor_id;sensor_type;location;lat;lon;timestamp;temperature;humidity
26909;DHT22;14477;51.038;4.588;2022-11-10T00:00:03;13.30;96.90
26909;DHT22;14477;51.038;4.588;2022-11-10T00:02:30;13.30;96.90
26909;DHT22;14477;51.038;4.588;2022-11-10T00:04:56;13.30;96.90
26909;DHT22;14477;51.038;4.588;2022-11-10T00:07:25;13.20;96.80
26909;DHT22;14477;51.038;4.588;2022-11-10T00:09:51;13.20;96.70
26909;DHT22;14477;51.038;4.588;2022-11-10T00:12:18;13.20;96.90
26909;DHT22;14477;51.038;4.588;2022-11-10T00:14:44;13.20;96.90
26909;DHT22;14477;51.038;4.588;2022-11-10T00:17:28;13.10;96.90
26909;DHT22;14477;51.038;4.588;2022-11-10T00:19:54;13.20;97.00
26909;DHT22;14477;51.038;4.588;2022-11-10T00:22:20;13.20;97.00
26909;DHT22;14477;51.038;4.588;2022-11-10T00:24:45;13.10;97.00
26909;DHT22;14477;51.038;4.588;2022-11-10T00:27:11;13.10;97.00
26909;DHT22;14477;51.038;4.588;2022-11-10T00:29:39;13.00;97.00
26909;DHT22;14477;51.038;4.588;2022-11-10T00:32:05;13.10;97.10
26909;DHT22;14477;51.038;4.588;2022-11-10T00:34:31;13.10;97.10
26909;DHT22;14477;51.038;4.588;2022-11-10T00:36:56;13.00;97.10
26909;DHT22;14477;51.038;4.588;2022-11-10T00:39:22;13.00;97.10
26909;DHT22;14477;51.038;4.588;2022-11-10T00:41:48;13.00;97.10
26909;DHT22;14477;51.038;4.588;2022-11-10T00:44:13;13.00;97.10
26909;DHT22;14477;51.038;4.588;2022-11-10T00:46:40;12.90;97.10
26909;DHT22;14477;51.038;4.588;2022-11-10T00:49:06;12.90;97.10
26909;DHT22;14477;51.038;4.588;2022-11-10T00:51:31;12.90;97.20
26909;DHT22;14477;51.038;4.588;2022-11-10T00:53:57;12.90;97.20
26909;DHT22;14477;51.038;4.588;2022-11-10T00:56:23;12.90;97.20
26909;DHT22;14477;51.038;4.588;2022-11-10T00:58:49;12.90;97.20
26909;DHT22;14477;51.038;4.588;2022-11-10T01:01:16;12.90;97.20
26909;DHT22;14477;51.038;4.588;2022-11-10T01:03:42;12.90;97.20
26909;DHT22;14477;51.038;4.588;2022-11-10T01:06:10;12.80;97.30
26909;DHT22;14477;51.038;4.588;2022-11-10T01:08:36;12.80;97.30
26909;DHT22;14477;51.038;4.588;2022-11-10T01:11:08;12.80;97.40
26909;DHT22;14477;51.038;4.588;2022-11-10T01:13:35;12.80;97.30
26909;DHT22;14477;51.038;4.588;2022-11-10T01:16:15;12.80;97.40
26909;DHT22;14477;51.038;4.588;2022-11-10T01:18:41;12.80;97.30
26909;DHT22;14477;51.038;4.588;2022-11-10T01:21:07;12.80;97.50
26909;DHT22;14477;51.038;4.588;2022-11-10T01:23:34;12.80;97.60
26909;DHT22;14477;51.038;4.588;2022-11-10T01:26:02;12.80;97.60
26909;DHT22;14477;51.038;4.588;2022-11-10T01:28:29;12.80;97.70
26909;DHT22;14477;51.038;4.588;2022-11-10T01:31:10;12.80;97.80
26909;DHT22;14477;51.038;4.588;2022-11-10T01:33:36;12.80;97.40
26909;DHT22;14477;51.038;4.588;2022-11-10T01:36:03;12.80;97.70
26909;DHT22;14477;51.038;4.588;2022-11-10T01:38:31;12.80;97.60
26909;DHT22;14477;51.038;4.588;2022-11-10T01:40:57;12.80;97.50
26909;DHT22;14477;51.038;4.588;2022-11-10T01:43:24;12.80;97.50
26909;DHT22;14477;51.038;4.588;2022-11-10T01:45:55;12.70;97.50
26909;DHT22;14477;51.038;4.588;2022-11-10T01:48:40;12.70;97.40
26909;DHT22;14477;51.038;4.588;2022-11-10T01:51:23;12.70;97.40
26909;DHT22;14477;51.038;4.588;2022-11-10T01:53:59;12.70;97.40
26909;DHT22;14477;51.038;4.588;2022-11-10T01:56:27;12.60;97.40
26909;DHT22;14477;51.038;4.588;2022-11-10T01:58:57;12.60;97.50
26909;DHT22;14477;51.038;4.588;2022-11-10T02:01:24;12.60;97.50
26909;DHT22;14477;51.038;4.588;2022-11-10T02:03:56;12.60;97.60
26909;DHT22;14477;51.038;4.588;2022-11-10T02:06:27;12.60;97.60
26909;DHT22;14477;51.038;4.588;2022-11-10T02:08:54;12.50;97.50
26909;DHT22;14477;51.038;4.588;2022-11-10T02:11:21;12.50;97.60
26909;DHT22;14477;51.038;4.588;2022-11-10T02:13:48;12.50;97.70
26909;DHT22;14477;51.038;4.588;2022-11-10T02:16:14;12.50;97.70
26909;DHT22;14477;51.038;4.588;2022-11-10T02:18:39;12.40;97.70
26909;DHT22;14477;51.038;4.588;2022-11-10T02:21:06;12.40;97.80
26909;DHT22;14477;51.038;4.588;2022-11-10T02:26:04;12.40;97.70
26909;DHT22;14477;51.038;4.588;2022-11-10T02:28:35;12.40;97.80
26909;DHT22;14477;51.038;4.588;2022-11-10T02:31:00;12.40;97.80
26909;DHT22;14477;51.038;4.588;2022-11-10T02:33:26;12.40;97.80
26909;DHT22;14477;51.038;4.588;2022-11-10T02:35:52;12.30;97.80
26909;DHT22;14477;51.038;4.588;2022-11-10T02:38:18;12.30;97.90
26909;DHT22;14477;51.038;4.588;2022-11-10T02:40:43;12.30;97.90
26909;DHT22;14477;51.038;4.588;2022-11-10T02:43:11;12.30;97.90
26909;DHT22;14477;51.038;4.588;2022-11-10T02:45:38;12.30;97.90
26909;DHT22;14477;51.038;4.588;2022-11-10T02:48:13;12.30;97.90
26909;DHT22;14477;51.038;4.588;2022-11-10T02:50:40;12.20;97.90
26909;DHT22;14477;51.038;4.588;2022-11-10T02:53:06;12.30;98.00
26909;DHT22;14477;51.038;4.588;2022-11-10T02:55:31;12.20;98.20
26909;DHT22;14477;51.038;4.588;2022-11-10T02:57:57;12.20;97.90
26909;DHT22;14477;51.038;4.588;2022-11-10T03:00:24;12.20;98.00
26909;DHT22;14477;51.038;4.588;2022-11-10T03:03:00;12.20;98.10
26909;DHT22;14477;51.038;4.588;2022-11-10T03:05:30;12.20;98.10
26909;DHT22;14477;51.038;4.588;2022-11-10T03:07:57;12.20;98.20
26909;DHT22;14477;51.038;4.588;2022-11-10T03:10:24;12.20;98.20
26909;DHT22;14477;51.038;4.588;2022-11-10T03:12:57;12.20;98.40
26909;DHT22;14477;51.038;4.588;2022-11-10T03:15:24;12.20;98.30
26909;DHT22;14477;51.038;4.588;2022-11-10T03:17:50;12.20;98.30
26909;DHT22;14477;51.038;4.588;2022-11-10T03:20:16;12.20;98.30
26909;DHT22;14477;51.038;4.588;2022-11-10T03:22:42;12.20;98.30
26909;DHT22;14477;51.038;4.588;2022-11-10T03:25:08;12.20;98.30
26909;DHT22;14477;51.038;4.588;2022-11-10T03:27:34;12.10;98.30
26909;DHT22;14477;51.038;4.588;2022-11-10T03:30:00;12.10;98.40
26909;DHT22;14477;51.038;4.588;2022-11-10T03:32:25;12.10;98.40
26909;DHT22;14477;51.038;4.588;2022-11-10T03:34:51;12.20;98.50
26909;DHT22;14477;51.038;4.588;2022-11-10T03:37:17;12.20;98.50
26909;DHT22;14477;51.038;4.588;2022-11-10T03:39:42;12.20;98.60
26909;DHT22;14477;51.038;4.588;2022-11-10T03:42:08;12.20;98.60
26909;DHT22;14477;51.038;4.588;2022-11-10T03:44:34;12.10;98.60
26909;DHT22;14477;51.038;4.588;2022-11-10T03:46:59;12.10;98.60
26909;DHT22;14477;51.038;4.588;2022-11-10T03:49:27;12.20;98.60
26909;DHT22;14477;51.038;4.588;2022-11-10T03:51:53;12.10;98.60
26909;DHT22;14477;51.038;4.588;2022-11-10T03:54:18;12.10;98.60
26909;DHT22;14477;51.038;4.588;2022-11-10T03:56:44;12.10;98.70
26909;DHT22;14477;51.038;4.588;2022-11-10T03:59:10;12.10;98.70
26909;DHT22;14477;51.038;4.588;2022-11-10T04:01:35;12.10;98.80
26909;DHT22;14477;51.038;4.588;2022-11-10T04:04:01;12.20;99.00
26909;DHT22;14477;51.038;4.588;2022-11-10T04:06:27;12.20;99.20
26909;DHT22;14477;51.038;4.588;2022-11-10T04:09:11;12.20;99.20
26909;DHT22;14477;51.038;4.588;2022-11-10T04:11:36;12.20;99.30
26909;DHT22;14477;51.038;4.588;2022-11-10T04:14:21;12.30;99.40
26909;DHT22;14477;51.038;4.588;2022-11-10T04:17:05;12.30;99.40
26909;DHT22;14477;51.038;4.588;2022-11-10T04:19:31;12.30;99.40
26909;DHT22;14477;51.038;4.588;2022-11-10T04:21:56;12.40;99.40
26909;DHT22;14477;51.038;4.588;2022-11-10T04:24:22;12.40;99.20
26909;DHT22;14477;51.038;4.588;2022-11-10T04:26:48;12.40;99.20
26909;DHT22;14477;51.038;4.588;2022-11-10T04:29:18;12.40;99.50
26909;DHT22;14477;51.038;4.588;2022-11-10T04:31:44;12.30;99.00
26909;DHT22;14477;51.038;4.588;2022-11-10T04:34:13;12.40;99.10
26909;DHT22;14477;51.038;4.588;2022-11-10T04:36:41;12.40;99.00
26909;DHT22;14477;51.038;4.588;2022-11-10T04:39:07;12.40;99.00
26909;DHT22;14477;51.038;4.588;2022-11-10T04:41:34;12.40;98.90
26909;DHT22;14477;51.038;4.588;2022-11-10T04:44:00;12.40;98.90
26909;DHT22;14477;51.038;4.588;2022-11-10T04:46:30;12.40;98.90
26909;DHT22;14477;51.038;4.588;2022-11-10T04:48:57;12.40;98.90
26909;DHT22;14477;51.038;4.588;2022-11-10T04:51:25;12.30;98.90
26909;DHT22;14477;51.038;4.588;2022-11-10T04:53:52;12.30;98.80
26909;DHT22;14477;51.038;4.588;2022-11-10T04:56:19;12.30;98.80
26909;DHT22;14477;51.038;4.588;2022-11-10T04:58:45;12.30;98.80
26909;DHT22;14477;51.038;4.588;2022-11-10T05:01:17;12.30;98.80
26909;DHT22;14477;51.038;4.588;2022-11-10T05:03:44;12.30;98.70
26909;DHT22;14477;51.038;4.588;2022-11-10T05:06:10;12.20;98.70
26909;DHT22;14477;51.038;4.588;2022-11-10T05:08:37;12.20;98.70
26909;DHT22;14477;51.038;4.588;2022-11-10T05:11:03;12.20;98.60
26909;DHT22;14477;51.038;4.588;2022-11-10T05:13:29;12.20;98.60
26909;DHT22;14477;51.038;4.588;2022-11-10T05:15:56;12.20;98.70
26909;DHT22;14477;51.038;4.588;2022-11-10T05:18:21;12.10;98.70
26909;DHT22;14477;51.038;4.588;2022-11-10T05:20:47;12.10;98.70
26909;DHT22;14477;51.038;4.588;2022-11-10T05:23:13;12.10;98.80
26909;DHT22;14477;51.038;4.588;2022-11-10T05:25:57;12.10;98.90
26909;DHT22;14477;51.038;4.588;2022-11-10T05:28:22;12.00;98.90
26909;DHT22;14477;51.038;4.588;2022-11-10T05:30:48;12.00;98.90
26909;DHT22;14477;51.038;4.588;2022-11-10T05:33:14;12.00;98.90
26909;DHT22;14477;51.038;4.588;2022-11-10T05:35:39;12.00;98.90
26909;DHT22;14477;51.038;4.588;2022-11-10T05:38:05;12.00;98.90
26909;DHT22;14477;51.038;4.588;2022-11-10T05:40:32;12.00;98.90
26909;DHT22;14477;51.038;4.588;2022-11-10T05:42:57;12.00;98.90
26909;DHT22;14477;51.038;4.588;2022-11-10T05:45:25;11.90;98.90
26909;DHT22;14477;51.038;4.588;2022-11-10T05:47:52;11.90;98.90
26909;DHT22;14477;51.038;4.588;2022-11-10T05:50:19;11.90;99.00
26909;DHT22;14477;51.038;4.588;2022-11-10T05:52:47;11.90;98.90
26909;DHT22;14477;51.038;4.588;2022-11-10T05:55:14;11.90;98.90
26909;DHT22;14477;51.038;4.588;2022-11-10T05:57:48;11.90;98.90
26909;DHT22;14477;51.038;4.588;2022-11-10T06:00:15;11.90;98.80
26909;DHT22;14477;51.038;4.588;2022-11-10T06:02:42;11.90;99.00
26909;DHT22;14477;51.038;4.588;2022-11-10T06:05:08;11.80;98.90
26909;DHT22;14477;51.038;4.588;2022-11-10T06:07:34;11.80;99.00
26909;DHT22;14477;51.038;4.588;2022-11-10T06:10:00;11.80;99.00
26909;DHT22;14477;51.038;4.588;2022-11-10T06:12:26;11.80;99.00
26909;DHT22;14477;51.038;4.588;2022-11-10T06:14:58;11.80;98.90
26909;DHT22;14477;51.038;4.588;2022-11-10T06:17:24;11.80;98.90
26909;DHT22;14477;51.038;4.588;2022-11-10T06:19:50;11.80;98.90
26909;DHT22;14477;51.038;4.588;2022-11-10T06:22:16;11.80;98.90
26909;DHT22;14477;51.038;4.588;2022-11-10T06:24:41;11.70;98.90
26909;DHT22;14477;51.038;4.588;2022-11-10T06:27:07;11.70;98.90
26909;DHT22;14477;51.038;4.588;2022-11-10T06:29:32;11.70;98.90
26909;DHT22;14477;51.038;4.588;2022-11-10T06:31:58;11.70;99.00
26909;DHT22;14477;51.038;4.588;2022-11-10T06:34:24;11.70;99.30
26909;DHT22;14477;51.038;4.588;2022-11-10T06:36:49;11.60;99.00
26909;DHT22;14477;51.038;4.588;2022-11-10T06:39:15;11.70;99.10
26909;DHT22;14477;51.038;4.588;2022-11-10T06:41:41;11.60;99.10
26909;DHT22;14477;51.038;4.588;2022-11-10T06:44:06;11.70;99.20
26909;DHT22;14477;51.038;4.588;2022-11-10T06:46:32;11.60;99.20
26909;DHT22;14477;51.038;4.588;2022-11-10T06:48:57;11.60;99.30
26909;DHT22;14477;51.038;4.588;2022-11-10T06:51:23;11.60;99.30
26909;DHT22;14477;51.038;4.588;2022-11-10T06:53:49;11.60;99.40
26909;DHT22;14477;51.038;4.588;2022-11-10T06:56:14;11.60;99.40
26909;DHT22;14477;51.038;4.588;2022-11-10T06:58:40;11.60;99.50
26909;DHT22;14477;51.038;4.588;2022-11-10T07:01:06;11.60;99.50
26909;DHT22;14477;51.038;4.588;2022-11-10T07:03:31;11.60;99.50
26909;DHT22;14477;51.038;4.588;2022-11-10T07:05:57;11.60;99.30
26909;DHT22;14477;51.038;4.588;2022-11-10T07:08:23;11.60;99.60
26909;DHT22;14477;51.038;4.588;2022-11-10T07:10:53;11.60;99.60
26909;DHT22;14477;51.038;4.588;2022-11-10T07:13:20;11.70;99.70
26909;DHT22;14477;51.038;4.588;2022-11-10T07:15:46;11.70;99.80
26909;DHT22;14477;51.038;4.588;2022-11-10T07:18:12;11.70;99.80
26909;DHT22;14477;51.038;4.588;2022-11-10T07:20:38;11.70;99.90
26909;DHT22;14477;51.038;4.588;2022-11-10T07:23:06;11.70;99.90
26909;DHT22;14477;51.038;4.588;2022-11-10T07:25:34;11.80;99.90
26909;DHT22;14477;51.038;4.588;2022-11-10T07:28:04;11.70;99.90
26909;DHT22;14477;51.038;4.588;2022-11-10T07:30:32;11.90;99.90
26909;DHT22;14477;51.038;4.588;2022-11-10T07:35:27;12.00;99.90
26909;DHT22;14477;51.038;4.588;2022-11-10T07:37:54;12.10;99.90
26909;DHT22;14477;51.038;4.588;2022-11-10T07:40:20;12.10;99.90
26909;DHT22;14477;51.038;4.588;2022-11-10T07:42:46;12.20;99.90
26909;DHT22;14477;51.038;4.588;2022-11-10T07:45:12;12.20;99.90
26909;DHT22;14477;51.038;4.588;2022-11-10T07:47:38;12.30;99.90
26909;DHT22;14477;51.038;4.588;2022-11-10T07:50:04;12.30;99.90
26909;DHT22;14477;51.038;4.588;2022-11-10T07:52:29;12.30;99.90
26909;DHT22;14477;51.038;4.588;2022-11-10T07:54:56;12.40;99.90
26909;DHT22;14477;51.038;4.588;2022-11-10T07:57:23;12.40;99.90
26909;DHT22;14477;51.038;4.588;2022-11-10T07:59:49;12.40;99.90
26909;DHT22;14477;51.038;4.588;2022-11-10T08:02:14;12.50;99.90
26909;DHT22;14477;51.038;4.588;2022-11-10T08:04:40;12.40;99.90
26909;DHT22;14477;51.038;4.588;2022-11-10T08:07:06;12.50;99.90
26909;DHT22;14477;51.038;4.588;2022-11-10T08:09:32;12.50;99.90
26909;DHT22;14477;51.038;4.588;2022-11-10T08:11:57;12.60;99.90
26909;DHT22;14477;51.038;4.588;2022-11-10T08:14:23;12.60;99.90
26909;DHT22;14477;51.038;4.588;2022-11-10T08:16:48;12.60;99.90
26909;DHT22;14477;51.038;4.588;2022-11-10T08:19:15;12.60;99.90
26909;DHT22;14477;51.038;4.588;2022-11-10T08:21:40;12.70;99.90
26909;DHT22;14477;51.038;4.588;2022-11-10T08:24:06;12.70;99.90
26909;DHT22;14477;51.038;4.588;2022-11-10T08:26:32;12.70;99.90
26909;DHT22;14477;51.038;4.588;2022-11-10T08:28:57;12.80;99.90
26909;DHT22;14477;51.038;4.588;2022-11-10T08:31:23;12.80;99.90
26909;DHT22;14477;51.038;4.588;2022-11-10T08:33:49;12.90;99.90
26909;DHT22;14477;51.038;4.588;2022-11-10T08:36:15;12.90;99.90
26909;DHT22;14477;51.038;4.588;2022-11-10T08:38:40;13.00;99.90
26909;DHT22;14477;51.038;4.588;2022-11-10T08:41:06;13.00;99.90
26909;DHT22;14477;51.038;4.588;2022-11-10T08:43:32;13.10;99.90
26909;DHT22;14477;51.038;4.588;2022-11-10T08:45:57;13.10;99.90
26909;DHT22;14477;51.038;4.588;2022-11-10T08:48:24;13.20;99.90
26909;DHT22;14477;51.038;4.588;2022-11-10T08:50:50;13.30;99.90
26909;DHT22;14477;51.038;4.588;2022-11-10T08:53:21;13.30;99.90
26909;DHT22;14477;51.038;4.588;2022-11-10T08:55:48;13.40;99.90
26909;DHT22;14477;51.038;4.588;2022-11-10T08:58:16;13.40;99.90
26909;DHT22;14477;51.038;4.588;2022-11-10T09:00:42;13.50;99.90
26909;DHT22;14477;51.038;4.588;2022-11-10T09:03:16;13.60;99.90
26909;DHT22;14477;51.038;4.588;2022-11-10T09:05:44;13.70;99.90
26909;DHT22;14477;51.038;4.588;2022-11-10T09:08:10;13.80;99.90
26909;DHT22;14477;51.038;4.588;2022-11-10T09:10:39;13.80;99.90
26909;DHT22;14477;51.038;4.588;2022-11-10T09:13:05;14.00;99.90
26909;DHT22;14477;51.038;4.588;2022-11-10T09:15:32;14.10;99.90
26909;DHT22;14477;51.038;4.588;2022-11-10T09:17:59;14.40;99.90
26909;DHT22;14477;51.038;4.588;2022-11-10T09:20:27;14.80;99.90
26909;DHT22;14477;51.038;4.588;2022-11-10T09:22:53;15.20;99.90
26909;DHT22;14477;51.038;4.588;2022-11-10T09:25:19;15.70;99.90
26909;DHT22;14477;51.038;4.588;2022-11-10T09:27:44;16.20;99.90
26909;DHT22;14477;51.038;4.588;2022-11-10T09:30:10;16.60;99.90
26909;DHT22;14477;51.038;4.588;2022-11-10T09:32:36;17.20;99.90
26909;DHT22;14477;51.038;4.588;2022-11-10T09:35:03;17.60;99.90
26909;DHT22;14477;51.038;4.588;2022-11-10T09:37:29;18.10;99.90
26909;DHT22;14477;51.038;4.588;2022-11-10T09:39:55;18.50;99.90
26909;DHT22;14477;51.038;4.588;2022-11-10T09:45:43;19.40;99.90
26909;DHT22;14477;51.038;4.588;2022-11-10T09:48:00;19.90;99.90
26909;DHT22;14477;51.038;4.588;2022-11-10T09:50:38;20.30;99.70
26909;DHT22;14477;51.038;4.588;2022-11-10T09:53:11;20.60;99.80
26909;DHT22;14477;51.038;4.588;2022-11-10T09:58:10;21.10;99.20
26909;DHT22;14477;51.038;4.588;2022-11-10T10:00:37;21.30;99.00
26909;DHT22;14477;51.038;4.588;2022-11-10T10:03:05;21.50;99.20
26909;DHT22;14477;51.038;4.588;2022-11-10T10:08:10;21.90;97.60
26909;DHT22;14477;51.038;4.588;2022-11-10T10:10:46;22.10;98.10
26909;DHT22;14477;51.038;4.588;2022-11-10T10:21:29;22.80;96.50
26909;DHT22;14477;51.038;4.588;2022-11-10T10:23:58;23.00;94.60
26909;DHT22;14477;51.038;4.588;2022-11-10T10:26:29;23.20;96.70
26909;DHT22;14477;51.038;4.588;2022-11-10T10:28:57;23.40;96.40
26909;DHT22;14477;51.038;4.588;2022-11-10T10:31:29;23.60;96.70
26909;DHT22;14477;51.038;4.588;2022-11-10T10:33:57;23.80;96.70
26909;DHT22;14477;51.038;4.588;2022-11-10T10:36:25;24.10;96.40
26909;DHT22;14477;51.038;4.588;2022-11-10T10:38:54;24.20;94.90
26909;DHT22;14477;51.038;4.588;2022-11-10T10:41:30;24.30;94.10
26909;DHT22;14477;51.038;4.588;2022-11-10T10:43:59;24.40;93.80
26909;DHT22;14477;51.038;4.588;2022-11-10T10:46:25;24.50;94.20
26909;DHT22;14477;51.038;4.588;2022-11-10T10:49:23;24.60;94.80
26909;DHT22;14477;51.038;4.588;2022-11-10T10:52:10;24.80;92.20
26909;DHT22;14477;51.038;4.588;2022-11-10T10:54:38;25.00;92.60
26909;DHT22;14477;51.038;4.588;2022-11-10T10:57:23;25.20;94.70
26909;DHT22;14477;51.038;4.588;2022-11-10T10:59:51;25.30;91.00
26909;DHT22;14477;51.038;4.588;2022-11-10T11:02:29;25.40;92.90
26909;DHT22;14477;51.038;4.588;2022-11-10T11:05:16;25.30;90.40
26909;DHT22;14477;51.038;4.588;2022-11-10T11:07:54;25.20;84.60
26909;DHT22;14477;51.038;4.588;2022-11-10T11:10:32;25.00;85.40
26909;DHT22;14477;51.038;4.588;2022-11-10T11:13:21;24.80;87.70
26909;DHT22;14477;51.038;4.588;2022-11-10T11:16:04;24.50;82.90
26909;DHT22;14477;51.038;4.588;2022-11-10T11:18:33;24.20;87.20
26909;DHT22;14477;51.038;4.588;2022-11-10T11:30:00;24.10;90.70
26909;DHT22;14477;51.038;4.588;2022-11-10T11:33:05;24.00;85.20
26909;DHT22;14477;51.038;4.588;2022-11-10T11:38:14;23.60;88.70
26909;DHT22;14477;51.038;4.588;2022-11-10T11:46:05;23.30;87.90
26909;DHT22;14477;51.038;4.588;2022-11-10T11:56:44;23.60;85.70
26909;DHT22;14477;51.038;4.588;2022-11-10T12:05:03;23.70;89.50
26909;DHT22;14477;51.038;4.588;2022-11-10T12:13:42;24.30;86.30
26909;DHT22;14477;51.038;4.588;2022-11-10T12:16:33;24.50;82.30
26909;DHT22;14477;51.038;4.588;2022-11-10T12:21:49;24.50;85.30
26909;DHT22;14477;51.038;4.588;2022-11-10T12:29:49;24.10;81.30
26909;DHT22;14477;51.038;4.588;2022-11-10T12:32:26;24.00;86.20
26909;DHT22;14477;51.038;4.588;2022-11-10T12:35:25;24.00;82.20
26909;DHT22;14477;51.038;4.588;2022-11-10T12:37:59;24.00;81.00
26909;DHT22;14477;51.038;4.588;2022-11-10T12:40:35;24.00;83.40
26909;DHT22;14477;51.038;4.588;2022-11-10T12:43:09;24.10;85.20
26909;DHT22;14477;51.038;4.588;2022-11-10T12:45:50;24.20;87.00
26909;DHT22;14477;51.038;4.588;2022-11-10T12:48:17;24.40;85.00
26909;DHT22;14477;51.038;4.588;2022-11-10T12:53:37;24.50;81.20
26909;DHT22;14477;51.038;4.588;2022-11-10T12:56:15;24.50;80.60
26909;DHT22;14477;51.038;4.588;2022-11-10T12:58:41;24.40;80.00
26909;DHT22;14477;51.038;4.588;2022-11-10T13:01:17;24.20;83.00
26909;DHT22;14477;51.038;4.588;2022-11-10T13:03:56;24.00;79.10
26909;DHT22;14477;51.038;4.588;2022-11-10T13:06:30;23.70;78.50
26909;DHT22;14477;51.038;4.588;2022-11-10T13:08:57;23.60;80.50
26909;DHT22;14477;51.038;4.588;2022-11-10T13:11:29;23.50;83.80
26909;DHT22;14477;51.038;4.588;2022-11-10T13:19:07;23.80;84.30
26909;DHT22;14477;51.038;4.588;2022-11-10T13:24:25;24.00;81.90
26909;DHT22;14477;51.038;4.588;2022-11-10T13:26:56;24.00;81.30
26909;DHT22;14477;51.038;4.588;2022-11-10T13:32:32;24.10;79.30
26909;DHT22;14477;51.038;4.588;2022-11-10T13:37:55;23.90;78.40
26909;DHT22;14477;51.038;4.588;2022-11-10T13:45:41;23.80;79.50
26909;DHT22;14477;51.038;4.588;2022-11-10T13:58:56;23.40;79.90
26909;DHT22;14477;51.038;4.588;2022-11-10T14:01:25;23.20;79.50
26909;DHT22;14477;51.038;4.588;2022-11-10T14:04:00;23.00;80.00
26909;DHT22;14477;51.038;4.588;2022-11-10T14:06:37;22.80;76.20
26909;DHT22;14477;51.038;4.588;2022-11-10T14:09:13;22.70;78.10
26909;DHT22;14477;51.038;4.588;2022-11-10T14:11:44;22.50;76.30
26909;DHT22;14477;51.038;4.588;2022-11-10T14:14:28;22.40;78.20
26909;DHT22;14477;51.038;4.588;2022-11-10T14:16:55;22.20;77.60
26909;DHT22;14477;51.038;4.588;2022-11-10T14:22:12;21.80;76.50
26909;DHT22;14477;51.038;4.588;2022-11-10T14:27:24;21.50;77.40
26909;DHT22;14477;51.038;4.588;2022-11-10T14:30:19;21.40;78.70
26909;DHT22;14477;51.038;4.588;2022-11-10T14:33:03;21.20;77.20
26909;DHT22;14477;51.038;4.588;2022-11-10T14:35:32;21.00;76.70
26909;DHT22;14477;51.038;4.588;2022-11-10T14:38:05;20.90;79.30
26909;DHT22;14477;51.038;4.588;2022-11-10T14:40:31;20.80;78.10
26909;DHT22;14477;51.038;4.588;2022-11-10T14:42:57;20.70;79.80
26909;DHT22;14477;51.038;4.588;2022-11-10T14:45:28;20.60;80.20
26909;DHT22;14477;51.038;4.588;2022-11-10T14:47:56;20.40;79.50
26909;DHT22;14477;51.038;4.588;2022-11-10T14:50:31;20.30;80.00
26909;DHT22;14477;51.038;4.588;2022-11-10T14:53:22;20.20;79.30
26909;DHT22;14477;51.038;4.588;2022-11-10T14:55:50;20.10;78.70
26909;DHT22;14477;51.038;4.588;2022-11-10T14:58:26;20.00;80.70
26909;DHT22;14477;51.038;4.588;2022-11-10T15:00:55;19.90;80.50
26909;DHT22;14477;51.038;4.588;2022-11-10T15:05:55;19.70;79.80
26909;DHT22;14477;51.038;4.588;2022-11-10T15:08:21;19.60;80.80
26909;DHT22;14477;51.038;4.588;2022-11-10T15:10:49;19.50;81.30
26909;DHT22;14477;51.038;4.588;2022-11-10T15:13:32;19.50;81.40
26909;DHT22;14477;51.038;4.588;2022-11-10T15:18:53;19.30;80.30
26909;DHT22;14477;51.038;4.588;2022-11-10T15:21:28;19.20;82.20
26909;DHT22;14477;51.038;4.588;2022-11-10T15:24:00;19.20;81.80
26909;DHT22;14477;51.038;4.588;2022-11-10T15:26:27;19.10;82.20
26909;DHT22;14477;51.038;4.588;2022-11-10T15:28:53;19.10;82.70
26909;DHT22;14477;51.038;4.588;2022-11-10T15:31:30;19.00;83.00
26909;DHT22;14477;51.038;4.588;2022-11-10T15:34:02;18.90;81.30
26909;DHT22;14477;51.038;4.588;2022-11-10T15:36:33;18.80;81.70
26909;DHT22;14477;51.038;4.588;2022-11-10T15:39:14;18.80;82.30
26909;DHT22;14477;51.038;4.588;2022-11-10T15:41:47;18.70;82.70
26909;DHT22;14477;51.038;4.588;2022-11-10T15:46:42;18.50;83.30
26909;DHT22;14477;51.038;4.588;2022-11-10T15:49:12;18.40;83.50
26909;DHT22;14477;51.038;4.588;2022-11-10T15:51:41;18.30;83.40
26909;DHT22;14477;51.038;4.588;2022-11-10T15:54:09;18.30;84.00
26909;DHT22;14477;51.038;4.588;2022-11-10T15:56:35;18.20;83.50
26909;DHT22;14477;51.038;4.588;2022-11-10T15:59:01;18.10;84.10
26909;DHT22;14477;51.038;4.588;2022-11-10T16:01:27;18.00;84.30
26909;DHT22;14477;51.038;4.588;2022-11-10T16:03:52;18.00;84.50
26909;DHT22;14477;51.038;4.588;2022-11-10T16:06:19;17.90;84.50
26909;DHT22;14477;51.038;4.588;2022-11-10T16:08:44;17.80;84.80
26909;DHT22;14477;51.038;4.588;2022-11-10T16:11:17;17.80;85.00
26909;DHT22;14477;51.038;4.588;2022-11-10T16:13:44;17.70;84.10
26909;DHT22;14477;51.038;4.588;2022-11-10T16:16:13;17.60;85.00
26909;DHT22;14477;51.038;4.588;2022-11-10T16:18:42;17.60;84.80
26909;DHT22;14477;51.038;4.588;2022-11-10T16:21:28;17.50;85.20
26909;DHT22;14477;51.038;4.588;2022-11-10T16:23:53;17.50;84.00
26909;DHT22;14477;51.038;4.588;2022-11-10T16:26:22;17.40;85.50
26909;DHT22;14477;51.038;4.588;2022-11-10T16:28:50;17.30;85.20
26909;DHT22;14477;51.038;4.588;2022-11-10T16:31:18;17.30;85.60
26909;DHT22;14477;51.038;4.588;2022-11-10T16:33:45;17.20;85.60
26909;DHT22;14477;51.038;4.588;2022-11-10T16:36:28;17.20;85.80
26909;DHT22;14477;51.038;4.588;2022-11-10T16:38:55;17.10;85.10
26909;DHT22;14477;51.038;4.588;2022-11-10T16:41:24;17.10;86.30
26909;DHT22;14477;51.038;4.588;2022-11-10T16:43:51;17.00;86.90
26909;DHT22;14477;51.038;4.588;2022-11-10T16:46:23;16.90;86.70
26909;DHT22;14477;51.038;4.588;2022-11-10T16:48:59;16.90;86.80
26909;DHT22;14477;51.038;4.588;2022-11-10T16:51:32;16.80;86.80
26909;DHT22;14477;51.038;4.588;2022-11-10T16:54:00;16.80;86.50
26909;DHT22;14477;51.038;4.588;2022-11-10T16:56:25;16.80;87.20
26909;DHT22;14477;51.038;4.588;2022-11-10T16:58:52;16.70;87.30
26909;DHT22;14477;51.038;4.588;2022-11-10T17:01:20;16.70;87.40
26909;DHT22;14477;51.038;4.588;2022-11-10T17:03:51;16.60;87.50
26909;DHT22;14477;51.038;4.588;2022-11-10T17:06:18;16.60;87.70
26909;DHT22;14477;51.038;4.588;2022-11-10T17:08:49;16.50;87.80
26909;DHT22;14477;51.038;4.588;2022-11-10T17:11:16;16.50;87.80
26909;DHT22;14477;51.038;4.588;2022-11-10T17:13:42;16.50;88.10
26909;DHT22;14477;51.038;4.588;2022-11-10T17:18:53;16.40;87.40
26909;DHT22;14477;51.038;4.588;2022-11-10T17:21:20;16.30;88.00
26909;DHT22;14477;51.038;4.588;2022-11-10T17:23:46;16.30;88.10
26909;DHT22;14477;51.038;4.588;2022-11-10T17:26:14;16.20;88.20
26909;DHT22;14477;51.038;4.588;2022-11-10T17:28:40;16.20;88.10
26909;DHT22;14477;51.038;4.588;2022-11-10T17:31:06;16.10;88.20
26909;DHT22;14477;51.038;4.588;2022-11-10T17:33:32;16.10;89.30
26909;DHT22;14477;51.038;4.588;2022-11-10T17:35:59;16.00;88.60